createdAt,value
2018-07-02T00:00:11.575Z,57.19
2018-07-02T00:02:40.499Z,56.90
2018-07-02T00:05:09.740Z,57.08
2018-07-02T00:07:38.582Z,58.00
2018-07-02T00:10:09.543Z,58.22
2018-07-02T00:12:38.478Z,58.18
2018-07-02T00:15:07.389Z,58.27
2018-07-02T00:17:36.099Z,58.67
2018-07-02T00:20:05.895Z,59.12
2018-07-02T00:22:34.773Z,59.01
2018-07-02T00:25:03.617Z,59.24
2018-07-02T00:27:32.304Z,58.46
2018-07-02T00:30:01.216Z,58.71
2018-07-02T00:32:29.856Z,58.70
2018-07-02T00:34:58.671Z,58.50
2018-07-02T00:37:27.431Z,58.53
2018-07-02T00:39:56.092Z,58.85
2018-07-02T00:42:24.961Z,59.53
2018-07-02T00:44:53.585Z,59.45
2018-07-02T00:47:22.257Z,59.26
2018-07-02T00:49:51.412Z,58.92
2018-07-02T00:52:20.142Z,59.05
2018-07-02T00:54:49.592Z,59.37
2018-07-02T00:57:18.236Z,59.80
2018-07-02T00:59:46.844Z,59.15
2018-07-02T01:02:15.542Z,59.32
2018-07-02T01:04:44.134Z,60.03
2018-07-02T01:07:13.461Z,60.74
2018-07-02T01:09:42.200Z,60.45
2018-07-02T01:12:10.954Z,61.01
2018-07-02T01:14:40.677Z,60.38
2018-07-02T01:17:09.434Z,60.98
2018-07-02T01:19:38.166Z,60.80
2018-07-02T01:22:06.853Z,61.15
2018-07-02T01:24:35.463Z,60.85
2018-07-02T01:27:04.168Z,60.82
2018-07-02T01:29:32.885Z,60.62
2018-07-02T01:32:01.458Z,61.07
2018-07-02T01:34:30.135Z,61.36
2018-07-02T01:36:58.752Z,60.85
2018-07-02T01:39:27.528Z,63.18
2018-07-02T01:41:56.269Z,62.49
2018-07-02T01:44:25.009Z,62.99
2018-07-02T01:46:53.626Z,63.34
2018-07-02T01:49:22.441Z,63.35
2018-07-02T01:51:51.104Z,63.03
2018-07-02T01:54:19.741Z,62.78
2018-07-02T01:56:48.412Z,62.78
2018-07-02T01:59:17.052Z,62.62
2018-07-02T02:01:45.630Z,62.55
2018-07-02T02:04:14.263Z,63.64
2018-07-02T02:06:42.889Z,64.08
2018-07-02T02:09:12.063Z,64.03
2018-07-02T02:11:40.696Z,63.97
2018-07-02T02:14:09.469Z,64.58
2018-07-02T02:16:38.452Z,64.56
2018-07-02T02:19:07.576Z,64.56
2018-07-02T02:21:36.260Z,65.21
2018-07-02T02:24:04.917Z,65.14
2018-07-02T02:26:33.897Z,65.96
2018-07-02T02:29:02.470Z,66.37
2018-07-02T02:31:31.473Z,66.33
2018-07-02T02:34:00.153Z,65.81
2018-07-02T02:36:28.940Z,65.90
2018-07-02T02:38:57.661Z,65.67
2018-07-02T02:41:26.485Z,65.56
2018-07-02T02:43:55.236Z,65.40
2018-07-02T02:46:23.917Z,65.32
2018-07-02T02:48:52.646Z,65.75
2018-07-02T02:51:21.444Z,66.10
2018-07-02T02:53:50.099Z,65.80
2018-07-02T02:56:18.791Z,65.82
2018-07-02T02:58:47.429Z,67.05
2018-07-02T03:01:16.024Z,66.48
2018-07-02T03:03:44.837Z,67.31
2018-07-02T03:06:13.516Z,66.33
2018-07-02T03:08:42.225Z,66.12
2018-07-02T03:11:10.987Z,65.57
2018-07-02T03:13:39.759Z,67.32
2018-07-02T03:16:08.425Z,67.06
2018-07-02T03:18:37.250Z,67.52
2018-07-02T03:21:05.837Z,67.13
2018-07-02T03:23:35.713Z,66.66
2018-07-02T03:26:04.572Z,65.40
2018-07-02T03:28:33.304Z,64.11
2018-07-02T03:31:02.099Z,63.38
2018-07-02T03:33:30.792Z,62.36
2018-07-02T03:35:59.594Z,61.22
2018-07-02T03:38:28.416Z,61.11
2018-07-02T03:40:57.405Z,60.22
2018-07-02T03:43:26.120Z,59.54
2018-07-02T03:45:54.853Z,58.03
2018-07-02T03:48:23.530Z,57.59
2018-07-02T03:50:52.746Z,55.60
2018-07-02T03:53:21.567Z,55.31
2018-07-02T03:55:50.344Z,54.14
2018-07-02T03:58:19.281Z,53.82
2018-07-02T04:00:48.130Z,52.66
2018-07-02T04:03:17.021Z,51.79
2018-07-02T04:05:45.895Z,52.92
2018-07-02T04:08:14.620Z,52.13
2018-07-02T04:10:43.463Z,51.88
2018-07-02T04:13:12.242Z,50.21
2018-07-02T04:15:41.619Z,50.08
2018-07-02T04:18:10.367Z,48.68
2018-07-02T04:20:38.999Z,47.39
2018-07-02T04:23:07.722Z,47.31
2018-07-02T04:25:36.576Z,45.80
2018-07-02T04:28:05.302Z,43.88
2018-07-02T04:30:33.966Z,43.42
2018-07-02T04:33:02.890Z,42.90
2018-07-02T04:35:31.732Z,43.52
2018-07-02T04:38:00.962Z,43.97
2018-07-02T04:40:30.198Z,41.28
2018-07-02T04:42:58.940Z,41.58
2018-07-02T04:45:27.385Z,42.12
2018-07-02T04:47:56.244Z,43.32
2018-07-02T04:50:24.972Z,43.55
2018-07-02T04:52:53.758Z,42.59
2018-07-02T04:55:22.652Z,43.74
2018-07-02T04:57:51.477Z,41.56
2018-07-02T05:00:20.202Z,42.08
2018-07-02T05:02:49.188Z,41.97
2018-07-02T05:05:18.402Z,42.09
2018-07-02T05:07:47.377Z,40.31
2018-07-02T05:10:16.139Z,40.10
2018-07-02T05:12:44.854Z,39.59
2018-07-02T05:15:14.130Z,39.77
2018-07-02T05:17:42.938Z,38.59
2018-07-02T05:20:11.565Z,38.13
2018-07-02T05:22:40.396Z,38.31
2018-07-02T05:25:09.296Z,37.71
2018-07-02T05:27:44.631Z,38.19
2018-07-02T05:30:13.500Z,37.88
2018-07-02T05:32:42.046Z,37.55
2018-07-02T05:35:10.643Z,35.84
2018-07-02T05:37:40.265Z,37.40
2018-07-02T05:40:08.812Z,37.30
2018-07-02T05:42:37.456Z,36.37
2018-07-02T05:45:06.172Z,35.75
2018-07-02T05:47:34.728Z,33.99
2018-07-02T05:50:03.309Z,34.87
2018-07-02T05:52:31.896Z,35.27
2018-07-02T05:55:00.447Z,36.21
2018-07-02T05:57:29.008Z,34.93
2018-07-02T05:59:57.590Z,34.79
2018-07-02T06:02:26.137Z,34.49
2018-07-02T06:04:54.635Z,33.29
2018-07-02T06:07:23.180Z,33.56
2018-07-02T06:09:51.668Z,34.21
2018-07-02T06:12:20.202Z,32.69
2018-07-02T06:14:48.764Z,31.40
2018-07-02T06:17:17.294Z,30.79
2018-07-02T06:19:45.804Z,31.27
2018-07-02T06:22:14.429Z,31.77
2018-07-02T06:24:43.010Z,30.67
2018-07-02T06:27:11.614Z,30.17
2018-07-02T06:29:40.161Z,29.29
2018-07-02T06:32:08.678Z,28.67
2018-07-02T06:34:37.236Z,29.34
2018-07-02T06:37:05.800Z,26.35
2018-07-02T06:39:34.357Z,25.87
2018-07-02T06:42:02.902Z,28.50
2018-07-02T06:44:31.712Z,28.12
2018-07-02T06:47:00.227Z,28.81
2018-07-02T06:49:28.745Z,29.06
2018-07-02T06:51:57.283Z,28.63
2018-07-02T06:54:25.811Z,26.80
2018-07-02T06:56:54.442Z,26.24
2018-07-02T06:59:23.037Z,26.55
2018-07-02T07:01:51.590Z,26.62
2018-07-02T07:04:20.085Z,27.87
2018-07-02T07:06:48.656Z,27.95
2018-07-02T07:09:17.195Z,27.51
2018-07-02T07:11:45.730Z,28.55
2018-07-02T07:14:14.304Z,27.89
2018-07-02T07:16:42.843Z,26.99
2018-07-02T07:19:11.393Z,27.46
2018-07-02T07:21:39.950Z,26.73
2018-07-02T07:24:08.461Z,27.15
2018-07-02T07:26:36.988Z,27.34
2018-07-02T07:29:05.525Z,26.33
2018-07-02T07:31:34.030Z,26.09
2018-07-02T07:34:02.577Z,25.86
2018-07-02T07:36:31.145Z,25.65
2018-07-02T07:38:59.719Z,26.09
2018-07-02T07:41:28.267Z,24.67
2018-07-02T07:43:56.939Z,25.96
2018-07-02T07:46:25.986Z,23.16
2018-07-02T07:48:54.513Z,25.13
2018-07-02T07:51:23.100Z,22.55
2018-07-02T07:53:51.650Z,23.58
2018-07-02T07:56:20.303Z,24.65
2018-07-02T07:58:48.869Z,25.85
2018-07-02T08:01:17.363Z,25.36
2018-07-02T08:03:45.988Z,23.26
2018-07-02T08:06:14.500Z,25.35
2018-07-02T08:08:43.052Z,23.03
2018-07-02T08:11:11.591Z,22.51
2018-07-02T08:13:40.146Z,23.86
2018-07-02T08:16:08.683Z,22.95
2018-07-02T08:18:37.316Z,21.14
2018-07-02T08:21:05.885Z,21.09
2018-07-02T08:23:34.429Z,20.17
2018-07-02T08:26:02.969Z,20.83
2018-07-02T08:28:31.553Z,21.62
2018-07-02T08:31:00.087Z,21.21
2018-07-02T08:33:28.648Z,20.25
2018-07-02T08:35:57.226Z,20.29
2018-07-02T08:38:25.780Z,21.72
2018-07-02T08:40:54.305Z,22.61
2018-07-02T08:43:22.834Z,21.53
2018-07-02T08:45:51.374Z,20.99
2018-07-02T08:48:19.986Z,21.33
2018-07-02T08:50:48.531Z,21.29
2018-07-02T08:53:17.064Z,21.44
2018-07-02T08:55:45.572Z,21.43
2018-07-02T08:58:14.225Z,22.27
2018-07-02T09:00:42.781Z,22.61
2018-07-02T09:03:11.311Z,22.79
2018-07-02T09:05:39.861Z,23.21
2018-07-02T09:08:08.377Z,23.44
2018-07-02T09:10:36.889Z,23.29
2018-07-02T09:13:05.876Z,21.80
2018-07-02T09:15:34.428Z,23.16
2018-07-02T09:18:02.949Z,23.11
2018-07-02T09:20:31.530Z,22.95
2018-07-02T09:23:00.057Z,22.56
2018-07-02T09:25:28.573Z,23.46
2018-07-02T09:28:03.849Z,21.97
2018-07-02T09:30:32.368Z,23.43
2018-07-02T09:33:00.888Z,21.99
2018-07-02T09:35:29.451Z,23.19
2018-07-02T09:37:57.991Z,23.02
2018-07-02T09:40:26.519Z,23.69
2018-07-02T09:42:55.069Z,24.99
2018-07-02T09:45:23.589Z,27.43
2018-07-02T09:47:52.142Z,23.96
2018-07-02T09:50:20.723Z,22.33
2018-07-02T09:52:49.470Z,24.29
2018-07-02T09:55:18.298Z,22.46
2018-07-02T09:57:46.872Z,24.24
2018-07-02T10:00:15.447Z,22.51
2018-07-02T10:02:44.002Z,23.15
2018-07-02T10:05:12.540Z,24.95
2018-07-02T10:07:41.061Z,23.16
2018-07-02T10:10:09.595Z,21.51
2018-07-02T10:12:38.158Z,22.03
2018-07-02T10:15:06.929Z,23.02
2018-07-02T10:17:35.474Z,22.49
2018-07-02T10:20:04.085Z,22.30
2018-07-02T10:22:32.645Z,23.65
2018-07-02T10:25:01.192Z,23.21
2018-07-02T10:27:29.776Z,22.39
2018-07-02T10:29:58.305Z,23.41
2018-07-02T10:32:26.854Z,21.66
2018-07-02T10:34:55.424Z,22.13
2018-07-02T10:37:23.957Z,20.53
2018-07-02T10:39:52.517Z,22.45
2018-07-02T10:42:21.072Z,19.85
2018-07-02T10:44:49.597Z,21.65
2018-07-02T10:47:18.193Z,22.07
2018-07-02T10:49:46.784Z,21.63
2018-07-02T10:52:15.290Z,21.81
2018-07-02T10:54:43.825Z,21.87
2018-07-02T10:57:12.362Z,19.73
2018-07-02T10:59:40.918Z,21.01
2018-07-02T11:02:09.447Z,20.25
2018-07-02T11:04:38.112Z,21.62
2018-07-02T11:07:06.649Z,18.26
2018-07-02T11:09:35.201Z,18.52
2018-07-02T11:12:03.802Z,18.80
2018-07-02T11:14:32.317Z,19.07
2018-07-02T11:17:00.851Z,20.00
2018-07-02T11:19:29.920Z,21.31
2018-07-02T11:21:58.506Z,21.81
2018-07-02T11:24:27.039Z,24.45
2018-07-02T11:26:55.580Z,24.95
2018-07-02T11:29:24.106Z,23.46
2018-07-02T11:31:52.656Z,23.82
2018-07-02T11:34:21.285Z,26.81
2018-07-02T11:36:49.824Z,26.38
2018-07-02T11:39:18.364Z,28.72
2018-07-02T11:41:46.985Z,27.10
2018-07-02T11:44:15.610Z,26.10
2018-07-02T11:46:44.089Z,25.33
2018-07-02T11:49:12.654Z,26.69
2018-07-02T11:51:41.196Z,24.74
2018-07-02T11:54:09.778Z,25.53
2018-07-02T11:56:38.321Z,25.80
2018-07-02T11:59:06.898Z,27.98
2018-07-02T12:01:35.422Z,29.13
2018-07-02T12:04:03.978Z,28.87
2018-07-02T12:06:32.488Z,26.97
2018-07-02T12:09:01.025Z,28.05
2018-07-02T12:11:29.602Z,26.23
2018-07-02T12:13:58.246Z,28.11
2018-07-02T12:16:26.774Z,29.40
2018-07-02T12:18:55.314Z,28.31
2018-07-02T12:21:23.845Z,31.49
2018-07-02T12:23:52.390Z,27.61
2018-07-02T12:26:20.957Z,28.65
2018-07-02T12:28:49.491Z,29.44
2018-07-02T12:31:18.006Z,27.38
2018-07-02T12:33:46.568Z,26.11
2018-07-02T12:36:15.174Z,27.85
2018-07-02T12:38:43.782Z,26.79
2018-07-02T12:41:12.418Z,27.86
2018-07-02T12:43:40.948Z,28.88
2018-07-02T12:46:09.491Z,28.84
2018-07-02T12:48:38.035Z,29.52
2018-07-02T12:51:06.579Z,29.71
2018-07-02T12:53:35.100Z,30.37
2018-07-02T12:56:03.634Z,29.50
2018-07-02T12:58:32.186Z,30.03
2018-07-02T13:01:00.789Z,31.40
2018-07-02T13:03:29.353Z,28.34
2018-07-02T13:05:57.848Z,30.55
2018-07-02T13:08:26.378Z,29.87
2018-07-02T13:10:54.921Z,27.85
2018-07-02T13:13:23.433Z,27.09
2018-07-02T13:15:51.973Z,27.75
2018-07-02T13:18:20.570Z,30.32
2018-07-02T13:20:49.111Z,29.64
2018-07-02T13:23:17.654Z,28.88
2018-07-02T13:25:46.221Z,29.35
2018-07-02T13:28:14.756Z,30.32
2018-07-02T13:30:43.376Z,30.99
2018-07-02T13:33:11.970Z,27.58
2018-07-02T13:35:40.492Z,27.77
2018-07-02T13:38:09.042Z,29.43
2018-07-02T13:40:37.581Z,30.65
2018-07-02T13:43:06.090Z,30.27
2018-07-02T13:45:35.487Z,31.83
2018-07-02T13:48:04.021Z,28.93
2018-07-02T13:50:32.539Z,30.40
2018-07-02T13:53:01.355Z,29.78
2018-07-02T13:55:29.997Z,28.84
2018-07-02T13:57:58.546Z,29.91
2018-07-02T14:00:27.310Z,28.93
2018-07-02T14:02:56.009Z,30.43
2018-07-02T14:05:24.815Z,30.37
2018-07-02T14:07:53.888Z,29.37
2018-07-02T14:10:22.644Z,30.92
2018-07-02T14:12:51.247Z,29.94
2018-07-02T14:15:19.944Z,29.24
2018-07-02T14:17:48.759Z,27.92
2018-07-02T14:20:17.423Z,29.64
2018-07-02T14:22:46.208Z,29.33
2018-07-02T14:25:14.854Z,29.84
2018-07-02T14:27:43.377Z,28.70
2018-07-02T14:30:12.048Z,28.67
2018-07-02T14:32:40.838Z,31.23
2018-07-02T14:35:09.494Z,28.97
2018-07-02T14:37:38.009Z,28.78
2018-07-02T14:40:06.720Z,31.47
2018-07-02T14:42:35.291Z,29.60
2018-07-02T14:45:04.004Z,27.84
2018-07-02T14:47:32.423Z,28.30
2018-07-02T14:50:00.965Z,29.71
2018-07-02T14:52:29.465Z,28.06
2018-07-02T14:54:58.062Z,28.09
2018-07-02T14:57:26.586Z,29.10
2018-07-02T14:59:55.124Z,30.98
2018-07-02T15:02:23.674Z,30.00
2018-07-02T15:04:52.232Z,27.97
2018-07-02T15:07:20.995Z,28.42
2018-07-02T15:09:49.622Z,29.53
2018-07-02T15:12:18.186Z,28.71
2018-07-02T15:14:46.702Z,28.95
2018-07-02T15:17:15.283Z,31.68
2018-07-02T15:19:43.805Z,29.47
2018-07-02T15:22:12.345Z,31.11
2018-07-02T15:24:40.877Z,29.33
2018-07-02T15:27:09.424Z,28.57
2018-07-02T15:29:37.949Z,28.56
2018-07-02T15:32:06.492Z,28.75
2018-07-02T15:34:35.023Z,29.17
2018-07-02T15:37:03.595Z,27.73
2018-07-02T15:39:32.190Z,26.52
2018-07-02T15:42:00.700Z,27.18
2018-07-02T15:44:29.210Z,27.36
2018-07-02T15:46:57.799Z,27.43
2018-07-02T15:49:26.339Z,27.29
2018-07-02T15:51:54.893Z,27.52
2018-07-02T15:54:23.437Z,27.56
2018-07-02T15:56:51.994Z,27.25
2018-07-02T15:59:20.509Z,26.95
2018-07-02T16:01:49.133Z,28.18
2018-07-02T16:04:17.779Z,29.42
2018-07-02T16:06:46.299Z,26.36
2018-07-02T16:09:14.834Z,27.46
2018-07-02T16:11:43.492Z,26.31
2018-07-02T16:14:12.033Z,27.44
2018-07-02T16:16:40.574Z,28.07
2018-07-02T16:19:09.130Z,26.77
2018-07-02T16:21:37.689Z,27.16
2018-07-02T16:24:07.551Z,29.34
2018-07-02T16:26:36.068Z,29.73
2018-07-02T16:29:04.629Z,28.77
2018-07-02T16:31:33.294Z,27.41
2018-07-02T16:34:01.850Z,28.64
2018-07-02T16:36:30.489Z,26.55
2018-07-02T16:38:59.088Z,26.44
2018-07-02T16:41:27.627Z,26.63
2018-07-02T16:43:56.150Z,27.58
2018-07-02T16:46:24.695Z,28.41
2018-07-02T16:48:53.205Z,27.37
2018-07-02T16:51:21.725Z,28.57
2018-07-02T16:53:50.258Z,27.70
2018-07-02T16:56:18.773Z,27.00
2018-07-02T16:58:47.312Z,28.89
2018-07-02T17:01:15.841Z,30.09
2018-07-02T17:03:44.351Z,29.09
2018-07-02T17:06:12.947Z,31.31
2018-07-02T17:08:41.455Z,29.29
2018-07-02T17:11:09.975Z,30.94
2018-07-02T17:13:38.499Z,29.27
2018-07-02T17:16:07.055Z,31.47
2018-07-02T17:18:35.614Z,30.45
2018-07-02T17:21:04.151Z,29.29
2018-07-02T17:23:32.704Z,30.47
2018-07-02T17:26:01.278Z,31.18
2018-07-02T17:28:29.857Z,28.95
2018-07-02T17:30:58.409Z,30.57
2018-07-02T17:33:27.382Z,31.92
2018-07-02T17:35:55.918Z,29.92
2018-07-02T17:38:24.501Z,29.34
2018-07-02T17:40:53.025Z,30.82
2018-07-02T17:43:21.589Z,29.68
2018-07-02T17:45:50.176Z,31.26
2018-07-02T17:48:18.713Z,29.98
2018-07-02T17:50:47.270Z,29.05
2018-07-02T17:53:15.822Z,30.74
2018-07-02T17:55:44.375Z,30.09
2018-07-02T17:58:12.883Z,29.51
2018-07-02T18:00:41.493Z,29.13
2018-07-02T18:03:10.023Z,29.78
2018-07-02T18:05:38.563Z,32.79
2018-07-02T18:08:07.131Z,33.30
2018-07-02T18:10:35.699Z,33.19
2018-07-02T18:13:04.190Z,31.57
2018-07-02T18:15:32.810Z,32.74
2018-07-02T18:18:01.359Z,31.03
2018-07-02T18:20:29.883Z,32.06
2018-07-02T18:22:58.451Z,31.10
2018-07-02T18:25:26.954Z,30.68
2018-07-02T18:27:55.511Z,32.25
2018-07-02T18:30:24.077Z,32.20
2018-07-02T18:32:52.595Z,33.71
2018-07-02T18:35:21.106Z,32.77
2018-07-02T18:37:49.692Z,32.54
2018-07-02T18:40:18.210Z,32.96
2018-07-02T18:42:46.713Z,35.33
2018-07-02T18:45:15.280Z,35.82
2018-07-02T18:47:43.817Z,35.44
2018-07-02T18:50:12.318Z,36.21
2018-07-02T18:52:40.911Z,36.68
2018-07-02T18:55:09.439Z,35.79
2018-07-02T18:57:37.987Z,36.32
2018-07-02T19:00:06.972Z,35.28
2018-07-02T19:02:35.537Z,36.75
2018-07-02T19:05:04.388Z,36.39
2018-07-02T19:07:32.984Z,37.28
2018-07-02T19:10:01.574Z,37.68
2018-07-02T19:12:30.073Z,37.87
2018-07-02T19:14:58.593Z,37.70
2018-07-02T19:17:27.199Z,38.52
2018-07-02T19:19:55.741Z,38.37
2018-07-02T19:22:24.261Z,38.35
2018-07-02T19:24:52.762Z,39.47
2018-07-02T19:27:21.306Z,38.93
2018-07-02T19:29:49.920Z,39.39
2018-07-02T19:32:18.477Z,39.57
2018-07-02T19:34:47.025Z,39.80
2018-07-02T19:37:15.557Z,40.17
2018-07-02T19:39:44.103Z,40.96
2018-07-02T19:42:12.644Z,41.64
2018-07-02T19:44:41.218Z,41.38
2018-07-02T19:47:10.213Z,41.22
2018-07-02T19:49:38.705Z,41.89
2018-07-02T19:52:07.279Z,42.51
2018-07-02T19:54:37.523Z,43.13
2018-07-02T19:57:06.328Z,43.53
2018-07-02T19:59:34.854Z,44.43
2018-07-02T20:02:03.362Z,44.97
2018-07-02T20:04:32.003Z,45.66
2018-07-02T20:07:00.543Z,45.94
2018-07-02T20:09:29.177Z,46.50
2018-07-02T20:11:57.705Z,46.78
2018-07-02T20:14:27.005Z,47.32
2018-07-02T20:16:55.553Z,47.59
2018-07-02T20:19:24.125Z,48.55
2018-07-02T20:21:52.656Z,51.45
2018-07-02T20:24:21.296Z,52.02
2018-07-02T20:26:50.488Z,52.36
2018-07-02T20:29:19.154Z,53.89
2018-07-02T20:31:47.818Z,54.09
2018-07-02T20:34:16.395Z,54.92
2018-07-02T20:36:45.023Z,56.20
2018-07-02T20:39:13.589Z,55.71
2018-07-02T20:41:42.186Z,56.41
2018-07-02T20:44:10.723Z,56.53
2018-07-02T20:46:39.265Z,57.57
2018-07-02T20:49:07.801Z,58.53
2018-07-02T20:51:36.529Z,58.36
2018-07-02T20:54:05.366Z,56.59
2018-07-02T20:56:34.289Z,56.22
2018-07-02T20:59:03.113Z,58.98
2018-07-02T21:01:32.198Z,60.68
2018-07-02T21:04:00.984Z,63.97
2018-07-02T21:06:29.866Z,64.66
2018-07-02T21:08:58.562Z,64.25
2018-07-02T21:11:27.439Z,63.46
2018-07-02T21:13:56.249Z,64.78
2018-07-02T21:16:25.097Z,61.49
2018-07-02T21:18:53.914Z,60.99
2018-07-02T21:21:22.749Z,61.30
2018-07-02T21:23:51.434Z,62.36
2018-07-02T21:26:20.262Z,61.65
2018-07-02T21:28:49.013Z,62.17
2018-07-02T21:31:17.676Z,62.76
2018-07-02T21:33:46.740Z,66.48
2018-07-02T21:36:16.070Z,69.04
2018-07-02T21:38:45.113Z,66.85
2018-07-02T21:41:13.927Z,65.14
2018-07-02T21:43:43.153Z,64.56
2018-07-02T21:46:11.893Z,66.23
2018-07-02T21:48:40.523Z,64.08
2018-07-02T21:51:09.221Z,64.40
2018-07-02T21:53:37.865Z,68.19
2018-07-02T21:56:06.852Z,69.31
2018-07-02T21:58:35.510Z,69.00
2018-07-02T22:01:04.358Z,68.84
2018-07-02T22:03:33.279Z,71.24
2018-07-02T22:06:01.999Z,71.52
2018-07-02T22:08:30.848Z,72.10
2018-07-02T22:10:59.763Z,71.93
2018-07-02T22:13:28.448Z,71.77
2018-07-02T22:15:57.088Z,72.24
2018-07-02T22:18:25.971Z,72.69
2018-07-02T22:20:54.920Z,73.46
2018-07-02T22:23:23.543Z,73.29
2018-07-02T22:25:52.219Z,73.58
2018-07-02T22:28:21.266Z,74.13
2018-07-02T22:30:49.947Z,73.42
2018-07-02T22:33:18.781Z,73.79
2018-07-02T22:35:47.591Z,74.88
2018-07-02T22:38:16.149Z,76.71
2018-07-02T22:40:44.898Z,76.71
2018-07-02T22:43:14.766Z,75.42
2018-07-02T22:45:43.701Z,75.49
2018-07-02T22:48:12.445Z,76.29
2018-07-02T22:50:41.597Z,76.88
2018-07-02T22:53:10.201Z,76.44
2018-07-02T22:55:49.962Z,77.40
2018-07-02T22:58:18.857Z,77.53
2018-07-02T23:00:47.475Z,78.02
2018-07-02T23:03:16.218Z,78.25
2018-07-02T23:05:45.000Z,78.62
2018-07-02T23:08:14.599Z,78.41
2018-07-02T23:10:43.371Z,78.09
2018-07-02T23:13:12.019Z,79.24
2018-07-02T23:15:40.792Z,80.06
2018-07-02T23:18:09.659Z,80.71
2018-07-02T23:20:38.317Z,81.05
2018-07-02T23:23:07.093Z,81.02
2018-07-02T23:25:35.766Z,80.72
2018-07-02T23:28:05.028Z,81.76
2018-07-02T23:30:34.174Z,81.25
2018-07-02T23:33:02.914Z,82.06
2018-07-02T23:35:31.683Z,82.91
2018-07-02T23:38:00.362Z,83.69
2018-07-02T23:40:29.137Z,83.44
2018-07-02T23:42:57.849Z,83.85
2018-07-02T23:45:26.508Z,84.76
2018-07-02T23:47:55.507Z,85.60
2018-07-02T23:50:24.182Z,85.47
2018-07-02T23:52:52.901Z,84.13
2018-07-02T23:55:21.505Z,85.19
2018-07-02T23:57:50.211Z,85.26
